Time;durP1;ratioP1;P1;durP2;ratioP2;P2;SDS_P1;SDS_P2;PMS_P1;PMS_P2;Temp;Humidity;BMP_temperature;BMP_pressure;BME280_temperature;BME280_humidity;BME280_pressure;Samples;Min_cycle;Max_cycle;Signal;HPM_P1;HPM_P2
2023/05/21 00:08:50;;;;;;;1999.90;999.90;;;14.20;99.90;;;;;;6751433;88;20192;-78
2023/05/21 00:18:53;;;;;;;1999.90;999.90;;;14.20;99.90;;;;;;6744491;88;20758;-77
2023/05/21 00:28:53;;;;;;;1999.90;999.90;;;14.20;99.90;;;;;;6747842;87;20236;-77
2023/05/21 00:38:54;;;;;;;1999.90;999.90;;;14.20;99.90;;;;;;6750291;88;20319;-78
2023/05/21 00:48:56;;;;;;;1999.90;999.90;;;14.00;99.90;;;;;;6746728;88;20387;-77
2023/05/21 00:58:58;;;;;;;1999.90;999.90;;;14.00;99.90;;;;;;6752510;88;20192;-77
2023/05/21 01:08:58;;;;;;;1999.90;999.90;;;14.00;99.90;;;;;;6750132;88;20224;-77
2023/05/21 01:18:59;;;;;;;1999.90;999.90;;;13.90;99.90;;;;;;6748276;88;20229;-77
2023/05/21 01:28:59;;;;;;;1999.90;999.90;;;13.90;99.90;;;;;;6744793;87;20509;-77
2023/05/21 01:39:05;;;;;;;1999.90;999.90;;;13.90;99.90;;;;;;6752435;88;20188;-77
2023/05/21 01:49:07;;;;;;;1999.90;999.90;;;13.80;99.90;;;;;;6742214;88;20211;-77
2023/05/21 01:59:08;;;;;;;1999.90;999.90;;;13.80;99.90;;;;;;6746413;88;20579;-78
2023/05/21 02:09:08;;;;;;;1999.90;999.90;;;13.70;99.90;;;;;;6746235;88;20190;-78
2023/05/21 02:19:10;;;;;;;1999.90;999.90;;;13.80;99.90;;;;;;6738969;88;20544;-78
2023/05/21 02:29:10;;;;;;;1999.90;999.90;;;13.80;99.90;;;;;;6748136;88;20269;-78
2023/05/21 02:39:10;;;;;;;1999.90;999.90;;;13.70;99.90;;;;;;6735889;88;20172;-78
2023/05/21 02:49:11;;;;;;;1999.90;999.90;;;13.70;99.90;;;;;;6748032;88;20208;-78
2023/05/21 02:59:12;;;;;;;1999.90;999.90;;;13.80;99.90;;;;;;6739694;88;20195;-78
2023/05/21 03:09:13;;;;;;;1999.90;999.90;;;13.80;99.90;;;;;;6749462;88;20204;-77
2023/05/21 03:19:14;;;;;;;1999.90;999.90;;;13.80;99.90;;;;;;6750251;88;20310;-78
2023/05/21 03:29:15;;;;;;;1999.90;999.90;;;13.80;99.90;;;;;;6753045;88;20863;-78
2023/05/21 03:39:15;;;;;;;1999.90;999.90;;;13.80;99.90;;;;;;6750390;88;20176;-78
2023/05/21 03:49:16;;;;;;;1999.90;999.90;;;13.70;99.90;;;;;;6751903;88;20198;-76
2023/05/21 03:59:16;;;;;;;1999.90;999.90;;;13.60;99.90;;;;;;6749782;88;20492;-76
2023/05/21 04:09:17;;;;;;;1999.90;999.90;;;13.70;99.90;;;;;;6739612;88;20215;-77
2023/05/21 04:19:17;;;;;;;1999.90;999.90;;;13.80;99.90;;;;;;6745917;88;20185;-76
2023/05/21 04:29:19;;;;;;;1999.90;999.90;;;13.90;99.90;;;;;;6742554;88;20375;-76
2023/05/21 04:39:20;;;;;;;1999.90;999.90;;;13.90;99.90;;;;;;6743230;88;20188;-77
2023/05/21 04:49:20;;;;;;;1999.90;999.90;;;14.00;99.90;;;;;;6747364;88;20184;-77
2023/05/21 04:59:21;;;;;;;1999.90;999.90;;;13.90;99.90;;;;;;6746766;88;20192;-76
2023/05/21 05:09:23;;;;;;;1999.90;999.90;;;13.90;99.90;;;;;;6750397;88;20169;-76
2023/05/21 05:19:24;;;;;;;1999.90;999.90;;;14.00;99.90;;;;;;6755310;88;20280;-76
2023/05/21 05:29:24;;;;;;;1999.90;999.90;;;14.10;99.90;;;;;;6753810;88;20232;-76
2023/05/21 05:39:25;;;;;;;1999.90;999.90;;;14.30;99.90;;;;;;6743982;88;20256;-76
2023/05/21 05:49:25;;;;;;;1999.90;999.90;;;14.30;99.90;;;;;;6745932;88;20212;-76
2023/05/21 05:59:26;;;;;;;1999.90;999.90;;;14.50;99.90;;;;;;6746266;88;20355;-76
2023/05/21 06:09:26;;;;;;;1999.90;999.90;;;14.90;99.90;;;;;;6735375;88;20172;-76
2023/05/21 06:19:27;;;;;;;1999.90;999.90;;;15.20;99.90;;;;;;6746114;88;20203;-76
2023/05/21 06:39:31;;;;;;;1999.90;999.90;;;15.70;99.90;;;;;;6734260;87;20214;-77
2023/05/21 06:49:32;;;;;;;1999.90;999.90;;;15.90;99.90;;;;;;6746607;87;20804;-80
2023/05/21 06:59:32;;;;;;;1999.90;999.90;;;16.50;99.90;;;;;;6774368;87;20670;-83
2023/05/21 07:09:33;;;;;;;1999.90;999.90;;;17.20;99.90;;;;;;6770098;87;20292;-77
2023/05/21 07:19:33;;;;;;;1999.90;999.90;;;17.60;99.90;;;;;;6712734;88;20736;-80
2023/05/21 07:29:34;;;;;;;1999.90;999.90;;;18.50;99.90;;;;;;6702492;88;20320;-80
2023/05/21 07:39:34;;;;;;;1999.90;999.90;;;18.80;99.90;;;;;;6734027;88;20206;-81
2023/05/21 07:49:35;;;;;;;1999.90;999.90;;;19.40;99.90;;;;;;6768283;88;20212;-80
2023/05/21 07:59:35;;;;;;;1999.90;999.90;;;20.50;99.90;;;;;;6771546;88;20195;-80
2023/05/21 08:09:36;;;;;;;1999.90;999.90;;;20.30;99.90;;;;;;6721503;88;20193;-80
2023/05/21 08:19:36;;;;;;;1999.90;999.90;;;20.40;99.90;;;;;;6746407;88;20694;-80
2023/05/21 08:29:37;;;;;;;1999.90;999.90;;;20.50;99.90;;;;;;6728303;88;20629;-80
2023/05/21 08:39:37;;;;;;;1999.90;999.90;;;20.00;99.90;;;;;;6733944;87;21000;-80
2023/05/21 08:49:38;;;;;;;1999.90;999.90;;;20.60;99.90;;;;;;6729276;88;20192;-77
2023/05/21 08:59:42;;;;;;;1999.90;999.90;;;22.30;99.90;;;;;;6735415;88;20205;-78
2023/05/21 09:10:08;;;;;;;1999.90;999.90;;;22.90;99.90;;;;;;6733651;88;20247;-78
2023/05/21 09:20:12;;;;;;;1999.90;999.90;;;23.50;99.90;;;;;;6724595;88;20247;-79
2023/05/21 09:30:14;;;;;;;1999.90;999.90;;;23.90;99.90;;;;;;6749425;88;20195;-78
2023/05/21 09:40:22;;;;;;;1999.90;999.90;;;24.10;99.90;;;;;;6711091;88;20286;-78
2023/05/21 09:50:30;;;;;;;1999.90;999.90;;;24.40;99.90;;;;;;6736513;88;20192;-77
2023/05/21 10:00:31;;;;;;;1999.90;999.90;;;25.80;99.90;;;;;;6738012;88;20208;-76
2023/05/21 10:10:31;;;;;;;1999.90;999.90;;;26.50;99.90;;;;;;6707997;88;20219;-80
2023/05/21 10:20:33;;;;;;;1999.90;999.90;;;26.90;99.90;;;;;;6701877;87;20230;-78
2023/05/21 10:30:35;;;;;;;1999.90;999.90;;;27.20;99.90;;;;;;6744224;88;20241;-78
2023/05/21 10:40:36;;;;;;;1999.90;999.90;;;27.20;99.20;;;;;;6749746;88;20193;-77
2023/05/21 10:51:04;;;;;;;1999.90;999.90;;;27.70;98.70;;;;;;6768470;88;20180;-78
2023/05/21 11:01:06;;;;;;;1999.90;999.90;;;27.40;99.20;;;;;;6750492;88;20740;-79
2023/05/21 11:11:06;;;;;;;1999.90;999.90;;;28.70;97.80;;;;;;6726660;88;20729;-80
2023/05/21 11:21:16;;;;;;;1999.90;999.90;;;28.60;97.40;;;;;;6726921;87;20287;-77
2023/05/21 11:31:26;;;;;;;1999.90;999.90;;;28.30;96.80;;;;;;6752154;87;20293;-78
2023/05/21 11:41:27;;;;;;;1999.90;999.90;;;27.70;97.60;;;;;;6725322;88;20301;-77
2023/05/21 11:51:28;;;;;;;1999.90;999.90;;;28.40;97.30;;;;;;6729681;88;20211;-77
2023/05/21 12:01:30;;;;;;;1999.90;999.90;;;29.30;96.70;;;;;;6735521;88;20232;-78
2023/05/21 12:11:30;;;;;;;1999.90;999.90;;;29.10;96.60;;;;;;6735392;88;20250;-78
2023/05/21 12:21:32;;;;;;;1999.90;999.90;;;29.90;95.90;;;;;;6738976;88;20644;-77
2023/05/21 12:31:32;;;;;;;1999.90;999.90;;;29.60;95.30;;;;;;6740117;88;20728;-78
2023/05/21 12:41:33;;;;;;;1999.90;999.90;;;31.20;94.70;;;;;;6748225;88;20238;-78
2023/05/21 12:51:37;;;;;;;;;;;32.10;94.20;;;;;;6672139;88;20668;-78
2023/05/21 13:01:38;;;;;;;1999.90;999.90;;;31.80;93.90;;;;;;6671879;88;20059;-78
2023/05/21 13:11:38;;;;;;;1999.90;999.90;;;31.30;93.30;;;;;;6673717;88;20236;-78
2023/05/21 13:21:39;;;;;;;1999.90;999.90;;;31.50;93.20;;;;;;6690083;88;20233;-78
2023/05/21 13:31:43;;;;;;;1999.90;999.90;;;32.10;92.90;;;;;;6740325;88;21029;-80
2023/05/21 13:41:43;;;;;;;1999.90;999.90;;;32.10;92.80;;;;;;6730614;88;20363;-79
2023/05/21 13:51:44;;;;;;;1999.90;999.90;;;31.60;93.30;;;;;;6749524;88;20841;-80
2023/05/21 14:01:46;;;;;;;1999.90;999.90;;;31.50;92.90;;;;;;6719516;88;20196;-80
2023/05/21 14:11:50;;;;;;;1999.90;999.90;;;30.50;93.30;;;;;;6703763;88;20176;-80
2023/05/21 14:21:51;;;;;;;1999.90;999.90;;;30.50;94.70;;;;;;6765139;88;20192;-82
2023/05/21 14:31:52;;;;;;;1999.90;999.90;;;30.60;93.60;;;;;;6752446;88;20219;-83
2023/05/21 14:41:52;;;;;;;1999.90;999.90;;;30.30;94.40;;;;;;6751489;88;20245;-82
2023/05/21 14:51:53;;;;;;;1999.90;999.90;;;30.90;93.40;;;;;;6754838;88;21025;-84
2023/05/21 15:01:54;;;;;;;1999.90;999.90;;;31.30;92.90;;;;;;6752892;88;20321;-84
2023/05/21 15:11:54;;;;;;;1999.90;999.90;;;31.10;93.70;;;;;;6756713;88;20218;-82
2023/05/21 15:21:55;;;;;;;1999.90;999.90;;;30.80;93.70;;;;;;6757640;88;20626;-82
2023/05/21 15:31:55;;;;;;;1999.90;999.90;;;30.60;93.80;;;;;;6756513;88;20212;-82
2023/05/21 15:41:56;;;;;;;1999.90;999.90;;;30.40;94.60;;;;;;6756051;88;20214;-81
2023/05/21 15:51:56;;;;;;;1999.90;999.90;;;30.10;94.30;;;;;;6759547;88;20228;-81
2023/05/21 16:01:58;;;;;;;1999.90;999.90;;;30.30;94.50;;;;;;6766462;88;20176;-84
2023/05/21 16:11:59;;;;;;;1999.90;999.90;;;29.60;94.60;;;;;;6763011;88;20197;-82
2023/05/21 16:22:00;;;;;;;1999.90;999.90;;;29.00;95.20;;;;;;6766561;88;20727;-83
2023/05/21 16:32:42;;;;;;;1999.90;999.90;;;28.60;96.00;;;;;;6784707;77;20168;-82
2023/05/21 16:42:42;;;;;;;1999.90;999.90;;;27.60;97.00;;;;;;6778830;87;20221;-82
2023/05/21 16:52:43;;;;;;;1999.90;999.90;;;27.10;96.90;;;;;;6764577;87;20164;-79
2023/05/21 17:02:43;;;;;;;1999.90;999.90;;;27.00;97.10;;;;;;6754746;88;20253;-82
2023/05/21 17:12:44;;;;;;;1999.90;999.90;;;26.30;97.00;;;;;;6757786;88;20227;-80
2023/05/21 17:22:45;;;;;;;1999.90;999.90;;;26.20;97.40;;;;;;6763920;88;20192;-81
2023/05/21 17:32:46;;;;;;;1999.90;999.90;;;26.00;97.70;;;;;;6759458;87;20260;-82
2023/05/21 17:42:46;;;;;;;1999.90;999.90;;;25.90;97.90;;;;;;6753042;88;20195;-82
2023/05/21 17:52:50;;;;;;;1999.90;999.90;;;25.50;98.50;;;;;;6752072;88;20180;-82
2023/05/21 18:02:50;;;;;;;;;;;25.00;98.50;;;;;;6753607;88;20265;-83
2023/05/21 18:12:50;;;;;;;1999.90;999.90;;;24.50;99.30;;;;;;6761309;88;20110;-81
2023/05/21 18:22:51;;;;;;;1999.90;999.90;;;24.20;99.90;;;;;;6754172;87;20853;-82
2023/05/21 18:32:51;;;;;;;1999.90;999.90;;;23.70;99.90;;;;;;6771709;87;20302;-80
2023/05/21 18:42:52;;;;;;;1999.90;999.90;;;23.30;99.90;;;;;;6754740;88;20241;-79
2023/05/21 18:52:54;;;;;;;1999.90;999.90;;;23.10;99.90;;;;;;6759358;88;20310;-80
2023/05/21 19:02:55;;;;;;;1999.90;999.90;;;22.90;99.90;;;;;;6775750;87;20170;-82
2023/05/21 19:12:56;;;;;;;1999.90;999.90;;;22.70;99.90;;;;;;6780117;87;20206;-82
2023/05/21 19:22:57;;;;;;;1999.90;999.90;;;22.60;99.90;;;;;;6777918;87;20163;-81
2023/05/21 19:32:57;;;;;;;1999.90;999.90;;;22.30;99.90;;;;;;6781657;88;20229;-81
2023/05/21 19:42:58;;;;;;;1999.90;999.90;;;22.20;99.90;;;;;;6779536;87;20200;-81
2023/05/21 19:52:58;;;;;;;1999.90;999.90;;;21.80;99.90;;;;;;6723361;88;20182;-80
2023/05/21 20:02:59;;;;;;;1999.90;999.90;;;21.60;99.90;;;;;;6726120;88;20294;-82
2023/05/21 20:13:00;;;;;;;1999.90;999.90;;;21.60;99.90;;;;;;6725435;88;20281;-82
2023/05/21 20:23:02;;;;;;;1999.90;999.90;;;21.50;99.90;;;;;;6751345;88;20263;-81
2023/05/21 20:33:02;;;;;;;1999.90;999.90;;;21.30;99.90;;;;;;6756225;88;20256;-80
2023/05/21 20:43:04;;;;;;;1999.90;999.90;;;21.10;99.90;;;;;;6755111;88;20273;-81
2023/05/21 20:53:05;;;;;;;1999.90;999.90;;;21.00;99.90;;;;;;6773655;88;20262;-82
2023/05/21 21:03:08;;;;;;;1999.90;999.90;;;20.80;99.90;;;;;;6774837;87;20852;-81
2023/05/21 21:13:09;;;;;;;1999.90;999.90;;;20.70;99.90;;;;;;6778273;87;20220;-81
2023/05/21 21:23:10;;;;;;;1999.90;999.90;;;20.50;99.90;;;;;;6775662;87;20232;-83
2023/05/21 21:33:10;;;;;;;1999.90;999.90;;;20.30;99.90;;;;;;6775779;87;20293;-82
2023/05/21 21:43:11;;;;;;;1999.90;999.90;;;20.20;99.90;;;;;;6776598;88;21099;-81
2023/05/21 21:53:12;;;;;;;1999.90;999.90;;;20.10;99.90;;;;;;6739003;88;20185;-82
2023/05/21 22:03:13;;;;;;;1999.90;999.90;;;20.00;99.90;;;;;;6742063;88;20234;-82
2023/05/21 22:13:13;;;;;;;1999.90;999.90;;;19.80;99.90;;;;;;6741565;88;20195;-81
2023/05/21 22:23:14;;;;;;;1999.90;999.90;;;19.60;99.90;;;;;;6769880;87;20219;-81
2023/05/21 22:33:15;;;;;;;1999.90;999.90;;;19.40;99.90;;;;;;6778206;88;20278;-81
2023/05/21 22:43:15;;;;;;;1999.90;999.90;;;19.40;99.90;;;;;;6780735;87;20195;-81
2023/05/21 22:53:16;;;;;;;1999.90;999.90;;;19.30;99.90;;;;;;6781426;87;20195;-81
2023/05/21 23:03:17;;;;;;;1999.90;999.90;;;19.20;99.90;;;;;;6780849;87;20160;-81
2023/05/21 23:13:17;;;;;;;1999.90;999.90;;;19.10;99.90;;;;;;6778967;87;20199;-81
2023/05/21 23:23:18;;;;;;;1999.90;999.90;;;19.10;99.90;;;;;;6779196;87;20187;-81
2023/05/21 23:33:18;;;;;;;1999.90;999.90;;;18.80;99.90;;;;;;6777881;87;20238;-81
2023/05/21 23:43:19;;;;;;;1999.90;999.90;;;18.70;99.90;;;;;;6778123;87;20215;-81
2023/05/21 23:53:20;;;;;;;1999.90;999.90;;;18.70;99.90;;;;;;6777229;87;20258;-82
